createdAt,value
2023-02-04T00:00:16.811Z,102868.09
2023-02-04T00:02:46.598Z,102882.69
2023-02-04T00:05:16.711Z,102863.22
2023-02-04T00:07:46.468Z,102864.88
2023-02-04T00:10:16.536Z,102875.13
2023-02-04T00:12:49.155Z,102878.41
2023-02-04T00:15:18.935Z,102884.38
2023-02-04T00:17:48.676Z,102876.84
2023-02-04T00:20:19.734Z,102889.63
2023-02-04T00:22:49.510Z,102880.41
2023-02-04T00:25:19.434Z,102877.41
2023-02-04T00:27:51.833Z,102876.00
2023-02-04T00:30:22.053Z,102877.41
2023-02-04T00:32:54.838Z,102873.06
2023-02-04T00:35:24.853Z,102883.31
2023-02-04T00:37:54.858Z,102877.66
2023-02-04T00:40:24.785Z,102881.66
2023-02-04T00:42:57.184Z,102874.63
2023-02-04T00:45:27.179Z,102880.84
2023-02-04T00:47:57.344Z,102880.03
2023-02-04T00:50:27.364Z,102879.97
2023-02-04T00:52:57.309Z,102877.84
2023-02-04T00:55:27.362Z,102875.69
2023-02-04T00:57:59.757Z,102882.75
2023-02-04T01:00:29.937Z,102883.31
2023-02-04T01:03:00.068Z,102889.31
2023-02-04T01:05:29.837Z,102895.28
2023-02-04T01:07:59.564Z,102897.75
2023-02-04T01:10:29.594Z,102893.13
2023-02-04T01:13:02.257Z,102897.44
2023-02-04T01:15:32.091Z,102890.13
2023-02-04T01:18:02.044Z,102893.91
2023-02-04T01:20:32.335Z,102905.56
2023-02-04T01:23:02.273Z,102909.34
2023-02-04T01:25:32.012Z,102914.75
2023-02-04T01:28:04.556Z,102915.16
2023-02-04T01:30:34.423Z,102924.97
2023-02-04T01:33:04.427Z,102925.19
2023-02-04T01:35:34.384Z,102923.28
2023-02-04T01:38:04.409Z,102934.13
2023-02-04T01:40:34.347Z,102937.44
2023-02-04T01:43:07.019Z,102941.22
2023-02-04T01:45:37.136Z,102942.84
2023-02-04T01:48:08.413Z,102945.03
2023-02-04T01:50:38.558Z,102953.16
2023-02-04T01:53:08.351Z,102950.78
2023-02-04T01:55:38.169Z,102952.91
2023-02-04T01:58:13.069Z,102956.13
2023-02-04T02:00:43.743Z,102949.91
2023-02-04T02:03:13.732Z,102956.38
2023-02-04T02:05:46.822Z,102941.22
2023-02-04T02:08:17.984Z,102947.19
2023-02-04T02:10:49.627Z,102944.16
2023-02-04T02:13:22.828Z,102953.59
2023-02-04T02:15:52.917Z,102949.56
2023-02-04T02:18:23.466Z,102944.47
2023-02-04T02:20:53.188Z,102952.28
2023-02-04T02:23:30.810Z,102955.78
2023-02-04T02:26:03.326Z,102965.50
2023-02-04T02:28:33.163Z,102969.03
2023-02-04T02:31:03.629Z,102974.69
2023-02-04T02:33:33.534Z,102984.72
2023-02-04T02:36:03.833Z,102978.47
2023-02-04T02:38:33.572Z,102983.38
2023-02-04T02:41:06.236Z,102975.81
2023-02-04T02:43:36.277Z,102985.84
2023-02-04T02:46:06.430Z,102989.63
2023-02-04T02:48:36.544Z,102977.16
2023-02-04T02:51:06.903Z,102979.59
2023-02-04T02:53:36.928Z,102984.72
2023-02-04T02:56:09.766Z,102984.13
2023-02-04T02:58:39.529Z,102982.75
2023-02-04T03:01:12.145Z,102990.31
2023-02-04T03:03:45.944Z,102989.47
2023-02-04T03:06:20.530Z,102997.00
2023-02-04T03:08:55.388Z,102996.53
2023-02-04T03:11:30.076Z,103004.66
2023-02-04T03:14:02.419Z,102997.00
2023-02-04T03:16:36.930Z,103011.97
2023-02-04T03:19:09.593Z,102998.09
2023-02-04T03:21:39.766Z,103001.34
2023-02-04T03:24:10.151Z,103006.53
2023-02-04T03:26:42.573Z,103002.75
2023-02-04T03:29:13.429Z,103014.41
2023-02-04T03:31:43.389Z,103017.94
2023-02-04T03:34:13.275Z,103017.38
2023-02-04T03:36:43.046Z,103010.56
2023-02-04T03:39:12.864Z,103021.63
2023-02-04T03:41:45.243Z,103022.69
2023-02-04T03:44:15.033Z,103025.06
2023-02-04T03:46:44.875Z,103032.16
2023-02-04T03:49:14.604Z,103025.91
2023-02-04T03:51:44.335Z,103025.06
2023-02-04T03:54:14.085Z,103027.56
2023-02-04T03:56:46.518Z,103015.56
2023-02-04T03:59:16.206Z,103018.84
2023-02-04T04:01:45.993Z,103021.31
2023-02-04T04:04:15.730Z,103020.25
2023-02-04T04:06:45.441Z,103013.75
2023-02-04T04:09:15.185Z,103020.00
2023-02-04T04:11:47.596Z,103023.78
2023-02-04T04:14:17.409Z,103027.03
2023-02-04T04:16:47.335Z,103034.59
2023-02-04T04:19:17.371Z,103035.06
2023-02-04T04:21:47.107Z,103051.31
2023-02-04T04:24:16.891Z,103050.75
2023-02-04T04:26:49.220Z,103051.81
2023-02-04T04:29:21.859Z,103044.78
2023-02-04T04:31:53.164Z,103048.06
2023-02-04T04:34:22.918Z,103058.88
2023-02-04T04:36:52.646Z,103061.94
2023-02-04T04:39:22.383Z,103061.94
2023-02-04T04:41:54.766Z,103061.44
2023-02-04T04:44:24.493Z,103061.69
2023-02-04T04:46:54.330Z,103057.91
2023-02-04T04:49:24.288Z,103064.94
2023-02-04T04:51:54.022Z,103060.91
2023-02-04T04:54:23.912Z,103059.06
2023-02-04T04:56:56.385Z,103064.47
2023-02-04T04:59:26.274Z,103069.91
2023-02-04T05:01:56.024Z,103069.91
2023-02-04T05:04:25.897Z,103069.91
2023-02-04T05:06:55.613Z,103075.31
2023-02-04T05:09:25.351Z,103077.16
2023-02-04T05:11:57.727Z,103083.66
2023-02-04T05:14:27.633Z,103087.19
2023-02-04T05:16:57.363Z,103088.00
2023-02-04T05:19:27.217Z,103088.84
2023-02-04T05:21:57.523Z,103095.31
2023-02-04T05:24:27.358Z,103093.66
2023-02-04T05:27:00.023Z,103097.44
2023-02-04T05:29:29.839Z,103106.06
2023-02-04T05:31:59.818Z,103101.72
2023-02-04T05:34:29.556Z,103107.69
2023-02-04T05:36:59.296Z,103110.88
2023-02-04T05:39:29.017Z,103113.03
2023-02-04T05:42:01.623Z,103108.09
2023-02-04T05:44:31.467Z,103105.88
2023-02-04T05:47:01.262Z,103115.06
2023-02-04T05:49:31.093Z,103119.66
2023-02-04T05:52:01.055Z,103119.09
2023-02-04T05:54:30.842Z,103123.09
2023-02-04T05:57:03.361Z,103130.06
2023-02-04T05:59:33.453Z,103133.84
2023-02-04T06:02:03.186Z,103135.63
2023-02-04T06:04:33.054Z,103132.91
2023-02-04T06:07:03.443Z,103135.88
2023-02-04T06:09:33.458Z,103142.34
2023-02-04T06:12:06.043Z,103137.97
2023-02-04T06:14:35.800Z,103141.50
2023-02-04T06:17:05.627Z,103140.94
2023-02-04T06:19:35.515Z,103141.19
2023-02-04T06:22:05.318Z,103139.78
2023-02-04T06:24:35.465Z,103145.41
2023-02-04T06:27:07.886Z,103146.72
2023-02-04T06:29:37.624Z,103149.69
2023-02-04T06:32:07.807Z,103151.22
2023-02-04T06:34:37.640Z,103149.56
2023-02-04T06:37:07.475Z,103153.44
2023-02-04T06:39:37.209Z,103156.72
2023-02-04T06:42:09.742Z,103142.97
2023-02-04T06:44:39.552Z,103146.72
2023-02-04T06:47:09.593Z,103153.53
2023-02-04T06:49:39.315Z,103154.13
2023-02-04T06:52:09.100Z,103162.00
2023-02-04T06:54:39.189Z,103159.28
2023-02-04T06:57:12.402Z,103170.13
2023-02-04T06:59:43.891Z,103171.66
2023-02-04T07:02:15.541Z,103174.13
2023-02-04T07:04:47.694Z,103173.06
2023-02-04T07:07:17.876Z,103176.94
2023-02-04T07:09:47.727Z,103176.94
2023-02-04T07:12:20.115Z,103175.28
2023-02-04T07:14:50.155Z,103176.59
2023-02-04T07:17:20.503Z,103178.38
2023-02-04T07:19:50.288Z,103183.78
2023-02-04T07:22:20.246Z,103184.59
2023-02-04T07:24:50.158Z,103194.63
2023-02-04T07:27:22.594Z,103187.56
2023-02-04T07:29:52.290Z,103189.19
2023-02-04T07:32:22.139Z,103184.59
2023-02-04T07:34:51.876Z,103189.53
2023-02-04T07:37:23.040Z,103203.66
2023-02-04T07:39:52.785Z,103205.53
2023-02-04T07:42:25.506Z,103206.63
2023-02-04T07:44:55.223Z,103219.53
2023-02-04T07:47:25.004Z,103208.97
2023-02-04T07:49:57.087Z,103208.13
2023-02-04T07:52:27.936Z,103210.34
2023-02-04T07:54:57.628Z,103216.94
2023-02-04T07:57:30.407Z,103226.94
2023-02-04T08:00:00.348Z,103222.34
2023-02-04T08:02:30.417Z,103224.81
2023-02-04T08:05:00.513Z,103231.41
2023-02-04T08:07:30.185Z,103236.31
2023-02-04T08:10:00.079Z,103233.38
2023-02-04T08:12:32.525Z,103239.03
2023-02-04T08:15:02.332Z,103244.13
2023-02-04T08:17:32.258Z,103249.28
2023-02-04T08:20:02.212Z,103250.09
2023-02-04T08:22:31.925Z,103258.81
2023-02-04T08:25:01.724Z,103263.75
2023-02-04T08:27:34.246Z,103268.69
2023-02-04T08:30:04.029Z,103263.63
2023-02-04T08:32:34.052Z,103265.59
2023-02-04T08:35:06.344Z,103266.75
2023-02-04T08:37:36.544Z,103274.16
2023-02-04T08:40:06.757Z,103274.75
2023-02-04T08:42:39.249Z,103272.88
2023-02-04T08:45:09.677Z,103281.00
2023-02-04T08:47:39.392Z,103282.06
2023-02-04T08:50:10.337Z,103291.81
2023-02-04T08:52:40.258Z,103296.97
2023-02-04T08:55:11.389Z,103299.19
2023-02-04T08:57:43.696Z,103295.22
2023-02-04T09:00:15.355Z,103296.84
2023-02-04T09:02:45.301Z,103304.47
2023-02-04T09:05:15.148Z,103294.25
2023-02-04T09:07:45.063Z,103294.25
2023-02-04T09:10:14.884Z,103301.56
2023-02-04T09:12:48.256Z,103303.53
2023-02-04T09:15:18.285Z,103299.16
2023-02-04T09:17:48.041Z,103302.00
2023-02-04T09:20:18.113Z,103306.44
2023-02-04T09:22:48.206Z,103305.47
2023-02-04T09:25:18.078Z,103305.81
2023-02-04T09:27:50.527Z,103305.56
2023-02-04T09:30:20.905Z,103307.78
2023-02-04T09:32:50.712Z,103316.50
2023-02-04T09:35:20.402Z,103316.00
2023-02-04T09:37:50.516Z,103314.72
2023-02-04T09:40:21.753Z,103316.34
2023-02-04T09:42:55.340Z,103317.66
2023-02-04T09:45:28.273Z,103314.34
2023-02-04T09:48:00.351Z,103318.50
2023-02-04T09:50:32.624Z,103320.38
2023-02-04T09:53:06.424Z,103323.09
2023-02-04T09:55:38.146Z,103331.28
2023-02-04T09:58:16.593Z,103332.47
2023-02-04T10:00:48.111Z,103332.63
2023-02-04T10:03:20.923Z,103334.47
2023-02-04T10:05:51.790Z,103331.00
2023-02-04T10:08:23.774Z,103329.72
2023-02-04T10:10:53.922Z,103335.47
2023-02-04T10:13:33.435Z,103342.88
2023-02-04T10:16:04.287Z,103338.63
2023-02-04T10:18:36.788Z,103331.69
2023-02-04T10:21:17.545Z,103333.66
2023-02-04T10:23:50.728Z,103333.50
2023-02-04T10:26:21.008Z,103335.47
2023-02-04T10:28:53.876Z,103336.81
2023-02-04T10:31:33.128Z,103341.72
2023-02-04T10:34:15.133Z,103349.69
2023-02-04T10:36:47.780Z,103348.22
2023-02-04T10:39:20.124Z,103342.06
2023-02-04T10:41:54.534Z,103342.63
2023-02-04T10:44:30.323Z,103358.44
2023-02-04T10:47:04.154Z,103346.00
2023-02-04T10:49:34.347Z,103355.72
2023-02-04T10:52:05.977Z,103356.53
2023-02-04T10:54:40.808Z,103353.56
2023-02-04T10:57:21.761Z,103348.47
2023-02-04T10:59:58.041Z,103357.19
2023-02-04T11:02:44.178Z,103346.66
2023-02-04T11:05:18.093Z,103351.59
2023-02-04T11:07:49.593Z,103345.34
2023-02-04T11:10:21.705Z,103349.44
2023-02-04T11:13:04.400Z,103344.56
2023-02-04T11:15:50.988Z,103341.94
2023-02-04T11:18:32.877Z,103342.84
2023-02-04T11:21:03.322Z,103344.28
2023-02-04T11:23:37.112Z,103341.41
2023-02-04T11:26:13.631Z,103343.28
2023-02-04T11:29:13.156Z,103339.50
2023-02-04T11:31:59.384Z,103343.09
2023-02-04T11:34:35.275Z,103339.63
2023-02-04T11:37:14.593Z,103336.41
2023-02-04T11:39:47.337Z,103338.06
2023-02-04T11:42:23.240Z,103337.47
2023-02-04T11:44:55.369Z,103344.03
2023-02-04T11:47:29.911Z,103340.56
2023-02-04T11:50:04.412Z,103349.28
2023-02-04T11:52:37.784Z,103347.47
2023-02-04T11:55:08.385Z,103344.22
2023-02-04T11:57:43.016Z,103345.63
2023-02-04T12:00:17.902Z,103345.94
2023-02-04T12:02:52.526Z,103344.59
2023-02-04T12:05:23.308Z,103352.50
2023-02-04T12:07:53.047Z,103344.34
2023-02-04T12:10:28.016Z,103348.72
2023-02-04T12:12:59.876Z,103349.53
2023-02-04T12:15:36.791Z,103351.91
2023-02-04T12:18:12.524Z,103355.22
2023-02-04T12:20:42.540Z,103356.34
2023-02-04T12:23:12.335Z,103348.25
2023-02-04T12:25:42.106Z,103346.66
2023-02-04T12:28:11.854Z,103350.25
2023-02-04T12:30:41.826Z,103355.22
2023-02-04T12:33:15.093Z,103345.22
2023-02-04T12:35:44.971Z,103343.66
2023-02-04T12:38:15.126Z,103348.00
2023-02-04T12:40:44.942Z,103353.72
2023-02-04T12:43:14.760Z,103352.34
2023-02-04T12:45:46.480Z,103366.97
2023-02-04T12:48:19.100Z,103363.69
2023-02-04T12:50:48.885Z,103362.06
2023-02-04T12:53:19.875Z,103361.19
2023-02-04T12:55:49.878Z,103360.63
2023-02-04T12:58:19.652Z,103364.16
2023-02-04T13:00:49.500Z,103357.66
2023-02-04T13:03:22.926Z,103359.81
2023-02-04T13:05:52.975Z,103362.47
2023-02-04T13:08:22.754Z,103359.38
2023-02-04T13:10:53.389Z,103356.88
2023-02-04T13:13:24.908Z,103360.13
2023-02-04T13:15:54.724Z,103354.63
2023-02-04T13:18:27.186Z,103357.34
2023-02-04T13:20:56.978Z,103353.63
2023-02-04T13:23:26.788Z,103355.06
2023-02-04T13:25:56.528Z,103349.00
2023-02-04T13:28:26.377Z,103347.38
2023-02-04T13:30:56.246Z,103347.56
2023-02-04T13:33:28.918Z,103344.28
2023-02-04T13:35:59.081Z,103346.25
2023-02-04T13:38:29.120Z,103345.94
2023-02-04T13:40:58.824Z,103340.75
2023-02-04T13:43:28.661Z,103339.13
2023-02-04T13:45:58.536Z,103342.13
2023-02-04T13:48:31.074Z,103342.13
2023-02-04T13:51:00.852Z,103340.81
2023-02-04T13:53:31.494Z,103342.94
2023-02-04T13:56:01.618Z,103334.53
2023-02-04T13:58:31.762Z,103335.38
2023-02-04T14:01:01.762Z,103330.75
2023-02-04T14:03:34.358Z,103327.44
2023-02-04T14:06:04.422Z,103323.56
2023-02-04T14:08:34.631Z,103342.03
2023-02-04T14:11:05.210Z,103342.84
2023-02-04T14:13:35.093Z,103335.78
2023-02-04T14:16:05.472Z,103338.72
2023-02-04T14:18:38.079Z,103335.97
2023-02-04T14:21:11.172Z,103337.78
2023-02-04T14:23:40.897Z,103348.31
2023-02-04T14:26:10.707Z,103354.28
2023-02-04T14:28:40.827Z,103358.56
2023-02-04T14:31:10.740Z,103363.16
2023-02-04T14:33:43.287Z,103364.50
2023-02-04T14:36:13.540Z,103357.91
2023-02-04T14:38:43.323Z,103361.16
2023-02-04T14:41:16.488Z,103354.16
2023-02-04T14:43:46.210Z,103356.91
2023-02-04T14:46:16.336Z,103358.06
2023-02-04T14:48:48.775Z,103359.72
2023-02-04T14:51:19.709Z,103359.72
2023-02-04T14:53:49.792Z,103365.13
2023-02-04T14:56:19.801Z,103365.13
2023-02-04T14:58:49.625Z,103360.22
2023-02-04T15:01:20.058Z,103364.25
2023-02-04T15:03:52.752Z,103371.56
2023-02-04T15:06:22.694Z,103373.72
2023-02-04T15:08:52.483Z,103365.03
2023-02-04T15:11:22.272Z,103356.28
2023-02-04T15:13:52.047Z,103356.28
2023-02-04T15:16:21.851Z,103358.44
2023-02-04T15:18:54.459Z,103355.97
2023-02-04T15:21:24.224Z,103358.13
2023-02-04T15:23:55.309Z,103368.16
2023-02-04T15:26:25.238Z,103366.75
2023-02-04T15:28:55.758Z,103370.22
2023-02-04T15:31:26.170Z,103369.66
2023-02-04T15:33:58.626Z,103365.88
2023-02-04T15:36:28.728Z,103372.94
2023-02-04T15:38:58.547Z,103367.50
2023-02-04T15:41:30.870Z,103379.22
2023-02-04T15:44:00.727Z,103372.88
2023-02-04T15:46:30.464Z,103379.38
2023-02-04T15:49:02.927Z,103372.28
2023-02-04T15:51:32.848Z,103378.22
2023-02-04T15:54:02.808Z,103387.94
2023-02-04T15:56:32.660Z,103391.16
2023-02-04T15:59:02.687Z,103388.13
2023-02-04T16:01:32.440Z,103394.84
2023-02-04T16:04:04.947Z,103394.53
2023-02-04T16:06:34.719Z,103388.28
2023-02-04T16:09:04.526Z,103387.22
2023-02-04T16:11:36.021Z,103391.56
2023-02-04T16:14:06.149Z,103392.41
2023-02-04T16:16:36.244Z,103391.56
2023-02-04T16:19:09.494Z,103400.22
2023-02-04T16:21:39.306Z,103399.88
2023-02-04T16:24:09.904Z,103402.75
2023-02-04T16:26:39.610Z,103402.63
2023-02-04T16:29:09.372Z,103405.03
2023-02-04T16:31:39.226Z,103406.84
2023-02-04T16:34:11.704Z,103409.44
2023-02-04T16:36:41.451Z,103412.09
2023-02-04T16:39:11.235Z,103410.94
2023-02-04T16:41:41.026Z,103420.63
2023-02-04T16:44:11.274Z,103422.44
2023-02-04T16:46:41.350Z,103426.22
2023-02-04T16:49:13.874Z,103429.16
2023-02-04T16:51:43.707Z,103430.22
2023-02-04T16:54:14.509Z,103438.34
2023-02-04T16:56:44.276Z,103431.28
2023-02-04T16:59:14.165Z,103439.66
2023-02-04T17:01:44.130Z,103443.91
2023-02-04T17:04:17.017Z,103446.88
2023-02-04T17:06:46.818Z,103444.06
2023-02-04T17:09:16.942Z,103437.50
2023-02-04T17:11:46.900Z,103439.63
2023-02-04T17:14:17.777Z,103433.84
2023-02-04T17:16:49.432Z,103438.47
2023-02-04T17:19:21.914Z,103444.38
2023-02-04T17:21:51.697Z,103447.31
2023-02-04T17:24:21.447Z,103443.19
2023-02-04T17:26:51.217Z,103439.91
2023-02-04T17:29:22.000Z,103426.56
2023-02-04T17:31:52.785Z,103428.47
2023-02-04T17:34:25.459Z,103422.00
2023-02-04T17:36:55.367Z,103423.03
2023-02-04T17:39:26.117Z,103427.44
2023-02-04T17:41:55.816Z,103420.84
2023-02-04T17:44:27.654Z,103428.38
2023-02-04T17:46:59.157Z,103422.84
2023-02-04T17:49:33.581Z,103436.91
2023-02-04T17:52:05.869Z,103439.50
2023-02-04T17:54:35.661Z,103433.72
2023-02-04T17:57:20.533Z,103440.09
2023-02-04T17:59:51.768Z,103441.16
2023-02-04T18:02:29.735Z,103435.97
2023-02-04T18:05:10.947Z,103445.16
2023-02-04T18:07:40.827Z,103438.13
2023-02-04T18:10:21.936Z,103440.69
2023-02-04T18:12:51.855Z,103446.47
2023-02-04T18:15:30.586Z,103445.41
2023-02-04T18:18:04.481Z,103436.81
2023-02-04T18:20:36.943Z,103442.22
2023-02-04T18:23:15.729Z,103438.13
2023-02-04T18:25:46.062Z,103435.66
2023-02-04T18:28:19.451Z,103440.69
2023-02-04T18:30:50.899Z,103442.84
2023-02-04T18:33:23.065Z,103441.66
2023-02-04T18:35:59.038Z,103443.78
2023-02-04T18:38:32.373Z,103443.19
2023-02-04T18:41:16.545Z,103437.19
2023-02-04T18:43:50.769Z,103442.59
2023-02-04T18:46:26.938Z,103444.72
2023-02-04T18:49:03.029Z,103446.84
2023-02-04T18:51:38.828Z,103445.22
2023-02-04T18:54:30.016Z,103446.72
2023-02-04T18:57:18.470Z,103443.56
2023-02-04T18:59:48.330Z,103442.25
2023-02-04T19:02:35.886Z,103443.09
2023-02-04T19:05:22.125Z,103445.78
2023-02-04T19:07:57.190Z,103436.84
2023-02-04T19:10:38.887Z,103432.72
2023-02-04T19:13:20.392Z,103429.41
2023-02-04T19:15:59.906Z,103432.38
2023-02-04T19:18:32.640Z,103424.50
2023-02-04T19:21:18.027Z,103438.47
2023-02-04T19:23:51.042Z,103441.19
2023-02-04T19:26:38.309Z,103442.97
2023-02-04T19:29:40.070Z,103445.56
2023-02-04T19:32:27.655Z,103458.53
2023-02-04T19:35:00.561Z,103455.56
2023-02-04T19:37:34.713Z,103446.88
2023-02-04T19:40:25.512Z,103461.09
2023-02-04T19:42:56.828Z,103453.31
2023-02-04T19:45:28.815Z,103459.34
2023-02-04T19:47:59.817Z,103460.41
2023-02-04T19:50:32.144Z,103449.78
2023-02-04T19:53:04.958Z,103452.72
2023-02-04T19:55:44.535Z,103455.94
2023-02-04T19:58:19.759Z,103459.69
2023-02-04T20:00:58.042Z,103461.78
2023-02-04T20:03:36.927Z,103461.22
2023-02-04T20:06:30.002Z,103470.25
2023-02-04T20:09:09.473Z,103468.63
2023-02-04T20:12:05.722Z,103460.50
2023-02-04T20:14:50.469Z,103457.06
2023-02-04T20:17:39.208Z,103461.91
2023-02-04T20:20:27.885Z,103458.13
2023-02-04T20:22:59.775Z,103450.16
2023-02-04T20:25:42.025Z,103457.22
2023-02-04T20:28:37.890Z,103454.50
2023-02-04T20:31:25.258Z,103457.22
2023-02-04T20:33:57.153Z,103454.84
2023-02-04T20:36:41.027Z,103454.50
2023-02-04T20:39:40.795Z,103448.47
2023-02-04T20:42:40.126Z,103440.84
2023-02-04T20:45:25.116Z,103441.91
2023-02-04T20:47:56.857Z,103436.50
2023-02-04T20:50:54.822Z,103438.25
2023-02-04T20:53:26.965Z,103439.66
2023-02-04T20:56:03.794Z,103440.72
2023-02-04T20:58:39.280Z,103433.66
2023-02-04T21:01:27.972Z,103436.84
2023-02-04T21:03:59.550Z,103426.13
2023-02-04T21:06:31.631Z,103428.63
2023-02-04T21:09:04.457Z,103438.13
2023-02-04T21:11:34.562Z,103437.31
2023-02-04T21:14:04.343Z,103444.03
2023-02-04T21:16:36.672Z,103445.06
2023-02-04T21:19:06.602Z,103451.28
2023-02-04T21:21:36.375Z,103462.34
2023-02-04T21:24:06.279Z,103454.22
2023-02-04T21:26:36.512Z,103462.34
2023-02-04T21:29:07.175Z,103456.94
2023-02-04T21:31:39.769Z,103448.00
2023-02-04T21:34:10.173Z,103453.66
2023-02-04T21:36:40.033Z,103454.13
2023-02-04T21:39:09.794Z,103458.69
2023-02-04T21:41:39.806Z,103455.16
2023-02-04T21:44:09.667Z,103451.44
2023-02-04T21:46:42.427Z,103442.91
2023-02-04T21:49:12.177Z,103446.44
2023-02-04T21:51:41.962Z,103437.50
2023-02-04T21:54:11.888Z,103440.78
2023-02-04T21:56:41.696Z,103444.34
2023-02-04T21:59:11.924Z,103440.78
2023-02-04T22:01:44.632Z,103434.56
2023-02-04T22:04:14.887Z,103435.59
2023-02-04T22:06:44.787Z,103430.44
2023-02-04T22:09:14.923Z,103443.38
2023-02-04T22:11:48.595Z,103435.47
2023-02-04T22:14:31.056Z,103428.41
2023-02-04T22:17:03.730Z,103426.78
2023-02-04T22:19:33.592Z,103430.53
2023-02-04T22:22:03.548Z,103415.97
2023-02-04T22:24:33.452Z,103415.97
2023-02-04T22:27:03.299Z,103416.53
2023-02-04T22:29:33.740Z,103416.09
2023-02-04T22:32:06.459Z,103416.66
2023-02-04T22:34:36.464Z,103418.97
2023-02-04T22:37:06.471Z,103427.06
2023-02-04T22:39:36.611Z,103424.53
2023-02-04T22:42:08.758Z,103428.09
2023-02-04T22:44:38.757Z,103437.91
2023-02-04T22:47:11.276Z,103431.63
2023-02-04T22:49:41.118Z,103420.00
2023-02-04T22:52:11.354Z,103428.09
2023-02-04T22:54:41.270Z,103432.50
2023-02-04T22:57:11.431Z,103439.53
2023-02-04T22:59:41.469Z,103442.47
2023-02-04T23:02:13.957Z,103447.03
2023-02-04T23:04:44.453Z,103452.47
2023-02-04T23:07:14.785Z,103446.00
2023-02-04T23:09:44.588Z,103444.94
2023-02-04T23:12:17.338Z,103448.25
2023-02-04T23:14:49.222Z,103448.25
2023-02-04T23:17:22.035Z,103449.13
2023-02-04T23:19:51.919Z,103441.72
2023-02-04T23:22:21.923Z,103440.06
2023-02-04T23:24:52.042Z,103437.97
2023-02-04T23:27:21.845Z,103443.16
2023-02-04T23:29:51.990Z,103449.13
2023-02-04T23:32:27.245Z,103444.34
2023-02-04T23:34:57.044Z,103436.22
2023-02-04T23:37:27.148Z,103435.84
2023-02-04T23:39:56.976Z,103438.31
2023-02-04T23:42:27.366Z,103441.63
2023-02-04T23:44:57.241Z,103436.22
2023-02-04T23:47:30.231Z,103433.31
2023-02-04T23:50:00.038Z,103428.78
2023-02-04T23:52:30.417Z,103424.66
2023-02-04T23:55:00.353Z,103421.38
2023-02-04T23:57:30.629Z,103418.53
